createdAt,value
2023-04-23T00:02:20.270Z,72.62
2023-04-23T00:04:54.338Z,72.42
2023-04-23T00:07:22.142Z,72.02
2023-04-23T00:09:52.840Z,72.46
2023-04-23T00:12:21.125Z,72.71
2023-04-23T00:14:48.304Z,72.66
2023-04-23T00:17:15.359Z,73.14
2023-04-23T00:19:42.293Z,73.53
2023-04-23T00:22:09.256Z,73.03
2023-04-23T00:24:39.286Z,73.49
2023-04-23T00:27:06.849Z,74.00
2023-04-23T00:29:33.673Z,73.57
2023-04-23T00:32:00.691Z,74.58
2023-04-23T00:34:28.339Z,74.13
2023-04-23T00:36:55.460Z,73.63
2023-04-23T00:39:22.434Z,74.32
2023-04-23T00:41:50.648Z,73.24
2023-04-23T00:44:17.684Z,74.38
2023-04-23T00:46:46.402Z,75.16
2023-04-23T00:49:14.207Z,73.58
2023-04-23T00:51:41.360Z,74.43
2023-04-23T00:54:08.436Z,74.77
2023-04-23T00:56:35.591Z,75.24
2023-04-23T00:59:03.462Z,74.70
2023-04-23T01:01:30.508Z,74.97
2023-04-23T01:03:58.795Z,75.33
2023-04-23T01:06:28.725Z,74.45
2023-04-23T01:08:56.050Z,74.79
2023-04-23T01:11:23.133Z,74.86
2023-04-23T01:13:50.976Z,74.55
2023-04-23T01:16:18.942Z,74.35
2023-04-23T01:18:46.162Z,74.35
2023-04-23T01:21:15.208Z,74.37
2023-04-23T01:23:42.174Z,75.04
2023-04-23T01:26:10.900Z,74.17
2023-04-23T01:28:38.384Z,74.45
2023-04-23T01:31:05.733Z,76.15
2023-04-23T01:33:33.659Z,74.90
2023-04-23T01:36:01.010Z,75.43
2023-04-23T01:38:30.978Z,76.59
2023-04-23T01:40:57.941Z,75.97
2023-04-23T01:43:25.427Z,75.31
2023-04-23T01:45:53.352Z,75.15
2023-04-23T01:48:20.609Z,74.44
2023-04-23T01:50:48.605Z,75.34
2023-04-23T01:53:15.685Z,74.24
2023-04-23T01:55:43.880Z,74.82
2023-04-23T01:58:10.755Z,74.89
2023-04-23T02:00:37.753Z,74.42
2023-04-23T02:03:04.757Z,73.91
2023-04-23T02:05:35.693Z,74.01
2023-04-23T02:08:04.180Z,74.79
2023-04-23T02:10:31.896Z,74.26
2023-04-23T02:12:59.878Z,74.00
2023-04-23T02:15:26.719Z,75.57
2023-04-23T02:17:54.053Z,74.99
2023-04-23T02:20:21.881Z,74.62
2023-04-23T02:22:49.525Z,74.92
2023-04-23T02:25:18.126Z,74.54
2023-04-23T02:27:45.258Z,74.77
2023-04-23T02:30:12.507Z,75.63
2023-04-23T02:32:40.221Z,75.84
2023-04-23T02:35:09.448Z,75.03
2023-04-23T02:37:37.474Z,75.95
2023-04-23T02:40:08.172Z,76.84
2023-04-23T02:42:35.373Z,75.84
2023-04-23T02:45:02.206Z,76.07
2023-04-23T02:47:30.283Z,74.39
2023-04-23T02:49:57.825Z,75.88
2023-04-23T02:52:24.860Z,76.74
2023-04-23T02:54:51.913Z,77.28
2023-04-23T02:57:19.303Z,76.38
2023-04-23T02:59:46.457Z,77.86
2023-04-23T03:02:17.684Z,76.85
2023-04-23T03:04:44.636Z,77.08
2023-04-23T03:07:13.410Z,76.31
2023-04-23T03:09:42.388Z,75.08
2023-04-23T03:12:09.560Z,74.50
2023-04-23T03:14:36.546Z,74.23
2023-04-23T03:17:03.518Z,73.12
2023-04-23T03:19:32.141Z,73.24
2023-04-23T03:21:59.704Z,73.64
2023-04-23T03:24:27.342Z,72.80
2023-04-23T03:26:54.132Z,73.04
2023-04-23T03:29:21.017Z,72.65
2023-04-23T03:31:47.999Z,72.95
2023-04-23T03:34:15.089Z,73.08
2023-04-23T03:36:41.987Z,74.16
2023-04-23T03:39:08.855Z,74.39
2023-04-23T03:41:47.743Z,75.40
2023-04-23T03:44:16.532Z,75.35
2023-04-23T03:46:45.563Z,75.00
2023-04-23T03:49:14.557Z,73.70
2023-04-23T03:51:41.467Z,74.28
2023-04-23T03:54:09.063Z,74.65
2023-04-23T03:56:41.660Z,73.27
2023-04-23T03:59:27.526Z,74.70
2023-04-23T04:01:57.035Z,74.58
2023-04-23T04:04:26.150Z,75.68
2023-04-23T04:06:54.768Z,76.04
2023-04-23T04:09:27.066Z,75.37
2023-04-23T04:11:54.263Z,74.41
2023-04-23T04:14:21.994Z,75.18
2023-04-23T04:16:49.584Z,75.18
2023-04-23T04:19:16.492Z,74.96
2023-04-23T04:21:43.375Z,74.50
2023-04-23T04:24:11.613Z,74.94
2023-04-23T04:26:38.585Z,74.74
2023-04-23T04:29:05.627Z,74.74
2023-04-23T04:31:32.868Z,74.03
2023-04-23T04:33:59.795Z,73.01
2023-04-23T04:36:27.341Z,73.46
2023-04-23T04:38:58.705Z,73.70
2023-04-23T04:41:26.178Z,74.08
2023-04-23T04:43:53.473Z,74.19
2023-04-23T04:46:21.176Z,74.51
2023-04-23T04:48:48.811Z,73.30
2023-04-23T04:51:16.191Z,73.71
2023-04-23T04:53:43.068Z,72.98
2023-04-23T04:56:10.118Z,72.73
2023-04-23T04:58:37.112Z,72.67
2023-04-23T05:01:05.543Z,72.75
2023-04-23T05:03:32.753Z,72.58
2023-04-23T05:05:59.818Z,72.94
2023-04-23T05:08:26.770Z,71.51
2023-04-23T05:10:56.391Z,71.94
2023-04-23T05:13:23.304Z,71.12
2023-04-23T05:15:50.165Z,70.28
2023-04-23T05:18:16.948Z,70.30
2023-04-23T05:20:44.054Z,70.31
2023-04-23T05:23:16.755Z,69.10
2023-04-23T05:25:43.622Z,68.67
2023-04-23T05:28:10.594Z,68.68
2023-04-23T05:30:37.899Z,68.23
2023-04-23T05:33:12.577Z,68.73
2023-04-23T05:35:39.546Z,68.86
2023-04-23T05:38:06.524Z,68.16
2023-04-23T05:40:34.104Z,68.26
2023-04-23T05:43:02.330Z,68.88
2023-04-23T05:45:29.302Z,69.39
2023-04-23T05:47:56.159Z,68.30
2023-04-23T05:50:23.396Z,68.35
2023-04-23T05:52:50.304Z,68.75
2023-04-23T05:55:18.304Z,68.31
2023-04-23T05:57:45.109Z,66.79
2023-04-23T06:00:12.496Z,65.93
2023-04-23T06:02:40.814Z,67.62
2023-04-23T06:05:08.381Z,66.86
2023-04-23T06:07:36.372Z,67.18
2023-04-23T06:10:05.674Z,67.64
2023-04-23T06:12:32.624Z,67.52
2023-04-23T06:14:59.519Z,66.82
2023-04-23T06:17:26.378Z,65.30
2023-04-23T06:19:53.512Z,64.14
2023-04-23T06:22:20.339Z,63.84
2023-04-23T06:24:47.139Z,62.64
2023-04-23T06:27:13.954Z,61.99
2023-04-23T06:29:45.834Z,61.88
2023-04-23T06:32:13.404Z,59.96
2023-04-23T06:34:49.850Z,59.78
2023-04-23T06:37:28.114Z,60.10
2023-04-23T06:39:56.125Z,58.19
2023-04-23T06:42:22.923Z,57.26
2023-04-23T06:45:06.260Z,56.58
2023-04-23T06:47:33.583Z,56.55
2023-04-23T06:50:00.444Z,56.17
2023-04-23T06:52:27.511Z,55.75
2023-04-23T06:54:54.486Z,56.03
2023-04-23T06:57:22.106Z,54.96
2023-04-23T06:59:48.987Z,53.93
2023-04-23T07:02:17.603Z,52.26
2023-04-23T07:04:44.664Z,53.26
2023-04-23T07:07:12.202Z,50.70
2023-04-23T07:09:39.422Z,51.75
2023-04-23T07:12:06.474Z,51.60
2023-04-23T07:14:36.473Z,49.60
2023-04-23T07:17:03.355Z,49.58
2023-04-23T07:19:30.327Z,48.77
2023-04-23T07:21:57.127Z,44.78
2023-04-23T07:24:26.526Z,45.17
2023-04-23T07:26:53.663Z,43.39
2023-04-23T07:29:20.721Z,48.09
2023-04-23T07:31:48.440Z,46.42
2023-04-23T07:34:16.046Z,45.45
2023-04-23T07:36:42.918Z,45.17
2023-04-23T07:39:09.757Z,43.65
2023-04-23T07:41:37.600Z,44.37
2023-04-23T07:44:04.715Z,44.43
2023-04-23T07:46:31.658Z,43.46
2023-04-23T07:48:58.634Z,43.32
2023-04-23T07:51:27.066Z,43.39
2023-04-23T07:53:54.621Z,43.97
2023-04-23T07:56:22.549Z,44.89
2023-04-23T07:58:49.395Z,45.57
2023-04-23T08:01:16.729Z,44.05
2023-04-23T08:03:43.795Z,45.04
2023-04-23T08:06:12.434Z,43.76
2023-04-23T08:08:39.572Z,43.55
2023-04-23T08:11:07.473Z,44.61
2023-04-23T08:13:34.552Z,44.33
2023-04-23T08:16:01.488Z,43.34
2023-04-23T08:18:28.329Z,43.96
2023-04-23T08:20:56.608Z,42.16
2023-04-23T08:23:23.494Z,43.98
2023-04-23T08:25:50.658Z,43.02
2023-04-23T08:28:18.915Z,43.06
2023-04-23T08:30:46.551Z,41.99
2023-04-23T08:33:14.304Z,41.76
2023-04-23T08:35:41.261Z,41.46
2023-04-23T08:38:08.123Z,40.18
2023-04-23T08:40:37.815Z,40.49
2023-04-23T08:43:21.211Z,41.76
2023-04-23T08:45:49.809Z,40.71
2023-04-23T08:48:17.122Z,40.71
2023-04-23T08:50:44.856Z,41.00
2023-04-23T08:53:18.201Z,40.89
2023-04-23T08:55:45.993Z,39.74
2023-04-23T08:58:14.275Z,37.83
2023-04-23T09:00:41.315Z,40.53
2023-04-23T09:03:09.070Z,38.89
2023-04-23T09:05:36.627Z,39.87
2023-04-23T09:08:03.427Z,38.63
2023-04-23T09:10:30.366Z,38.47
2023-04-23T09:12:57.210Z,39.38
2023-04-23T09:15:24.054Z,39.58
2023-04-23T09:17:51.311Z,40.08
2023-04-23T09:20:18.230Z,39.41
2023-04-23T09:22:47.861Z,41.24
2023-04-23T09:25:19.930Z,37.79
2023-04-23T09:27:47.459Z,37.65
2023-04-23T09:30:15.796Z,38.32
2023-04-23T09:32:45.965Z,40.01
2023-04-23T09:35:17.844Z,40.20
2023-04-23T09:37:50.517Z,37.88
2023-04-23T09:40:22.869Z,36.94
2023-04-23T09:42:52.744Z,36.88
2023-04-23T09:45:20.184Z,36.63
2023-04-23T09:48:05.077Z,36.76
2023-04-23T09:50:36.964Z,39.75
2023-04-23T09:53:05.071Z,36.10
2023-04-23T09:55:38.977Z,37.26
2023-04-23T09:58:07.631Z,36.75
2023-04-23T10:00:39.172Z,36.04
2023-04-23T10:03:10.353Z,38.28
2023-04-23T10:08:16.217Z,37.26
2023-04-23T10:13:16.601Z,36.48
2023-04-23T10:15:47.690Z,35.94
2023-04-23T10:18:19.722Z,37.39
2023-04-23T10:20:47.605Z,35.20
2023-04-23T10:23:14.991Z,34.44
2023-04-23T10:25:43.375Z,34.96
2023-04-23T10:28:12.441Z,35.54
2023-04-23T10:30:40.895Z,36.51
2023-04-23T10:33:15.836Z,35.77
2023-04-23T10:35:50.558Z,35.37
2023-04-23T10:38:18.026Z,36.65
2023-04-23T10:40:49.248Z,35.12
2023-04-23T10:43:17.250Z,34.77
2023-04-23T10:45:44.151Z,35.41
2023-04-23T10:48:11.026Z,34.05
2023-04-23T10:50:42.958Z,32.69
2023-04-23T10:53:24.100Z,31.64
2023-04-23T10:55:50.970Z,31.57
2023-04-23T10:58:17.833Z,31.90
2023-04-23T11:00:46.829Z,30.22
2023-04-23T11:03:43.363Z,33.04
2023-04-23T11:06:17.656Z,33.20
2023-04-23T11:08:54.989Z,33.10
2023-04-23T11:11:40.338Z,33.25
2023-04-23T11:14:16.408Z,31.51
2023-04-23T11:16:43.640Z,31.99
2023-04-23T11:19:12.750Z,32.85
2023-04-23T11:22:03.548Z,32.27
2023-04-23T11:24:36.693Z,31.98
2023-04-23T11:27:08.206Z,31.32
2023-04-23T11:29:36.584Z,32.88
2023-04-23T11:32:05.549Z,30.01
2023-04-23T11:34:34.042Z,31.23
2023-04-23T11:37:02.809Z,32.08
2023-04-23T11:39:29.709Z,32.05
2023-04-23T11:41:57.825Z,31.97
2023-04-23T11:44:24.753Z,31.52
2023-04-23T11:46:51.636Z,30.67
2023-04-23T11:49:21.750Z,30.45
2023-04-23T11:51:48.647Z,31.74
2023-04-23T11:54:16.411Z,33.12
2023-04-23T11:56:43.786Z,33.87
2023-04-23T11:59:10.715Z,30.14
2023-04-23T12:01:42.671Z,32.11
2023-04-23T12:04:24.249Z,32.63
2023-04-23T12:06:52.631Z,31.20
2023-04-23T12:09:22.235Z,31.80
2023-04-23T12:11:53.083Z,29.92
2023-04-23T12:14:27.051Z,30.46
2023-04-23T12:16:54.307Z,30.52
2023-04-23T12:19:26.527Z,29.94
2023-04-23T12:22:04.314Z,28.19
2023-04-23T12:24:32.337Z,30.76
2023-04-23T12:27:02.731Z,30.33
2023-04-23T12:29:31.768Z,29.18
2023-04-23T12:32:00.589Z,31.24
2023-04-23T12:34:27.660Z,31.77
2023-04-23T12:36:56.591Z,30.60
2023-04-23T12:39:31.960Z,31.68
2023-04-23T12:42:06.758Z,31.18
2023-04-23T12:44:38.006Z,31.00
2023-04-23T12:47:11.496Z,30.88
2023-04-23T12:49:41.206Z,31.57
2023-04-23T12:52:09.319Z,30.54
2023-04-23T12:54:41.333Z,31.02
2023-04-23T12:57:12.243Z,30.75
2023-04-23T12:59:39.495Z,30.54
2023-04-23T13:02:07.315Z,30.02
2023-04-23T13:04:36.444Z,30.01
2023-04-23T13:07:03.829Z,29.25
2023-04-23T13:09:30.742Z,28.63
2023-04-23T13:11:57.791Z,27.68
2023-04-23T13:14:24.823Z,29.10
2023-04-23T13:16:52.743Z,29.46
2023-04-23T13:19:19.677Z,30.44
2023-04-23T13:21:46.644Z,31.64
2023-04-23T13:24:13.697Z,31.31
2023-04-23T13:26:40.843Z,31.61
2023-04-23T13:29:08.099Z,31.23
2023-04-23T13:31:35.151Z,31.67
2023-04-23T13:34:03.203Z,33.00
2023-04-23T13:36:30.231Z,31.78
2023-04-23T13:38:57.222Z,30.27
2023-04-23T13:41:24.186Z,31.76
2023-04-23T13:43:51.076Z,30.92
2023-04-23T13:46:19.811Z,30.98
2023-04-23T13:48:47.019Z,30.18
2023-04-23T13:51:32.622Z,30.62
2023-04-23T13:54:01.118Z,30.72
2023-04-23T13:56:28.028Z,30.65
2023-04-23T13:59:02.171Z,31.32
2023-04-23T14:01:35.371Z,31.89
2023-04-23T14:04:04.486Z,32.29
2023-04-23T14:06:31.817Z,32.74
2023-04-23T14:08:58.809Z,32.07
2023-04-23T14:11:25.830Z,32.10
2023-04-23T14:13:52.746Z,32.07
2023-04-23T14:16:19.672Z,32.56
2023-04-23T14:18:46.554Z,32.05
2023-04-23T14:21:15.668Z,32.64
2023-04-23T14:23:49.361Z,31.42
2023-04-23T14:26:47.818Z,32.19
2023-04-23T14:29:40.523Z,31.33
2023-04-23T14:32:07.850Z,31.63
2023-04-23T14:34:37.420Z,31.00
2023-04-23T14:37:05.312Z,30.53
2023-04-23T14:39:35.039Z,32.02
2023-04-23T14:42:02.750Z,31.86
2023-04-23T14:44:29.817Z,32.17
2023-04-23T14:46:56.992Z,31.88
2023-04-23T14:49:24.332Z,31.96
2023-04-23T14:51:56.294Z,31.60
2023-04-23T14:54:23.772Z,31.83
2023-04-23T14:56:51.483Z,32.64
2023-04-23T14:59:18.362Z,31.83
2023-04-23T15:01:45.393Z,31.82
2023-04-23T15:04:12.651Z,30.81
2023-04-23T15:06:40.612Z,30.58
2023-04-23T15:09:07.614Z,30.27
2023-04-23T15:11:36.973Z,32.50
2023-04-23T15:14:08.441Z,32.11
2023-04-23T15:19:07.193Z,31.38
2023-04-23T15:21:34.188Z,32.44
2023-04-23T15:24:01.096Z,31.71
2023-04-23T15:26:28.210Z,32.89
2023-04-23T15:28:55.301Z,33.68
2023-04-23T15:31:22.172Z,33.95
2023-04-23T15:33:49.061Z,34.80
2023-04-23T15:36:15.881Z,34.18
2023-04-23T15:38:42.862Z,34.04
2023-04-23T15:41:11.116Z,33.70
2023-04-23T15:43:38.007Z,34.17
2023-04-23T15:46:04.940Z,33.70
2023-04-23T15:48:37.754Z,35.24
2023-04-23T15:51:04.742Z,33.31
2023-04-23T15:53:31.538Z,33.46
2023-04-23T15:55:58.885Z,34.44
2023-04-23T15:58:25.787Z,34.67
2023-04-23T16:00:52.771Z,35.42
2023-04-23T16:03:20.019Z,33.73
2023-04-23T16:05:48.394Z,34.09
2023-04-23T16:08:16.920Z,34.95
2023-04-23T16:10:43.961Z,36.94
2023-04-23T16:13:10.962Z,37.78
2023-04-23T16:15:37.902Z,38.88
2023-04-23T16:18:06.313Z,38.67
2023-04-23T16:20:33.518Z,38.77
2023-04-23T16:23:01.524Z,38.91
2023-04-23T16:25:28.456Z,39.15
2023-04-23T16:27:56.114Z,39.65
2023-04-23T16:30:23.584Z,40.22
2023-04-23T16:32:50.618Z,40.57
2023-04-23T16:35:17.492Z,40.51
2023-04-23T16:37:44.340Z,41.69
2023-04-23T16:40:11.419Z,42.90
2023-04-23T16:42:42.033Z,43.09
2023-04-23T16:45:09.275Z,42.28
2023-04-23T16:47:36.400Z,43.04
2023-04-23T16:50:03.328Z,43.34
2023-04-23T16:52:30.285Z,44.31
2023-04-23T16:54:57.126Z,44.44
2023-04-23T16:57:25.406Z,44.94
2023-04-23T16:59:52.822Z,46.06
2023-04-23T17:02:21.277Z,45.90
2023-04-23T17:04:48.629Z,46.45
2023-04-23T17:07:15.888Z,46.60
2023-04-23T17:09:42.885Z,46.32
2023-04-23T17:12:09.782Z,47.80
2023-04-23T17:14:36.617Z,46.82
2023-04-23T17:17:03.496Z,47.44
2023-04-23T17:19:30.473Z,47.71
2023-04-23T17:21:57.473Z,48.13
2023-04-23T17:24:24.378Z,49.06
2023-04-23T17:26:51.276Z,48.66
2023-04-23T17:29:18.040Z,48.69
2023-04-23T17:31:45.205Z,49.57
2023-04-23T17:34:12.086Z,50.46
2023-04-23T17:36:39.036Z,50.93
2023-04-23T17:39:05.986Z,50.60
2023-04-23T17:41:32.845Z,50.58
2023-04-23T17:43:59.705Z,50.37
2023-04-23T17:46:26.832Z,50.97
2023-04-23T17:48:53.667Z,50.52
2023-04-23T17:51:21.582Z,50.08
2023-04-23T17:53:50.566Z,50.56
2023-04-23T17:56:17.444Z,50.35
2023-04-23T17:58:44.378Z,50.75
2023-04-23T18:01:11.687Z,50.15
2023-04-23T18:03:38.850Z,50.47
2023-04-23T18:06:06.587Z,50.80
2023-04-23T18:08:33.582Z,49.87
2023-04-23T18:11:00.613Z,49.81
2023-04-23T18:13:27.671Z,49.23
2023-04-23T18:15:54.638Z,49.89
2023-04-23T18:18:22.165Z,49.06
2023-04-23T18:20:49.290Z,49.59
2023-04-23T18:23:16.272Z,49.61
2023-04-23T18:25:43.186Z,48.96
2023-04-23T18:28:10.297Z,48.72
2023-04-23T18:30:38.197Z,49.37
2023-04-23T18:33:25.905Z,49.39
2023-04-23T18:35:59.443Z,48.62
2023-04-23T18:38:46.765Z,48.67
2023-04-23T18:41:13.590Z,48.79
2023-04-23T18:43:40.629Z,48.44
2023-04-23T18:46:07.585Z,47.37
2023-04-23T18:48:34.540Z,47.71
2023-04-23T18:51:19.537Z,48.53
2023-04-23T18:53:46.913Z,48.33
2023-04-23T18:56:13.785Z,47.61
2023-04-23T18:58:40.568Z,47.48
2023-04-23T19:01:07.611Z,48.06
2023-04-23T19:03:34.666Z,48.39
2023-04-23T19:06:07.330Z,47.95
2023-04-23T19:08:35.491Z,46.90
2023-04-23T19:11:03.260Z,47.27
2023-04-23T19:13:30.258Z,46.74
2023-04-23T19:15:57.239Z,47.83
2023-04-23T19:18:24.302Z,49.20
2023-04-23T19:20:51.778Z,48.06
2023-04-23T19:23:19.223Z,48.55
2023-04-23T19:25:46.351Z,48.46
2023-04-23T19:28:13.257Z,49.35
2023-04-23T19:30:40.318Z,49.18
2023-04-23T19:33:07.181Z,48.01
2023-04-23T19:35:34.148Z,47.52
2023-04-23T19:38:01.041Z,49.11
2023-04-23T19:40:27.897Z,50.67
2023-04-23T19:42:54.726Z,50.30
2023-04-23T19:45:22.125Z,48.85
2023-04-23T19:47:49.071Z,49.45
2023-04-23T19:50:16.130Z,49.93
2023-04-23T19:52:43.088Z,51.63
2023-04-23T19:55:12.573Z,52.92
2023-04-23T19:57:40.153Z,52.04
2023-04-23T20:00:14.366Z,51.89
2023-04-23T20:02:41.637Z,53.07
2023-04-23T20:05:12.369Z,52.67
2023-04-23T20:07:39.564Z,52.91
2023-04-23T20:10:07.395Z,52.48
2023-04-23T20:12:34.961Z,53.44
2023-04-23T20:15:02.561Z,52.00
2023-04-23T20:17:32.891Z,51.58
2023-04-23T20:20:01.990Z,52.25
2023-04-23T20:22:29.939Z,52.80
2023-04-23T20:24:58.020Z,51.01
2023-04-23T20:27:26.309Z,52.59
2023-04-23T20:29:53.101Z,51.59
2023-04-23T20:32:20.204Z,52.27
2023-04-23T20:34:47.117Z,51.71
2023-04-23T20:37:14.028Z,52.07
2023-04-23T20:39:41.984Z,51.85
2023-04-23T20:42:09.032Z,52.53
2023-04-23T20:44:36.425Z,53.67
2023-04-23T20:47:08.477Z,54.58
2023-04-23T20:49:35.719Z,54.79
2023-04-23T20:52:02.799Z,53.29
2023-04-23T20:54:32.602Z,54.15
2023-04-23T20:56:59.523Z,55.25
2023-04-23T20:59:26.493Z,53.84
2023-04-23T21:01:53.388Z,54.01
2023-04-23T21:04:20.497Z,53.35
2023-04-23T21:06:47.503Z,52.88
2023-04-23T21:09:17.404Z,52.99
2023-04-23T21:11:46.669Z,53.58
2023-04-23T21:14:13.473Z,54.80
2023-04-23T21:16:40.360Z,56.06
2023-04-23T21:19:07.360Z,55.87
2023-04-23T21:21:34.278Z,56.27
2023-04-23T21:24:01.692Z,57.32
2023-04-23T21:26:30.738Z,57.52
2023-04-23T21:28:57.834Z,58.29
2023-04-23T21:31:43.920Z,58.66
2023-04-23T21:34:10.886Z,58.60
2023-04-23T21:36:37.830Z,59.17
2023-04-23T21:39:04.901Z,60.20
2023-04-23T21:41:31.756Z,59.93
2023-04-23T21:43:58.645Z,59.43
2023-04-23T21:46:25.684Z,60.21
2023-04-23T21:48:53.889Z,60.08
2023-04-23T21:51:22.492Z,60.36
2023-04-23T21:53:49.374Z,60.67
2023-04-23T21:56:17.030Z,60.51
2023-04-23T21:58:44.716Z,60.88
2023-04-23T22:01:11.953Z,61.17
2023-04-23T22:03:42.527Z,60.57
2023-04-23T22:06:09.861Z,60.36
2023-04-23T22:08:40.470Z,60.34
2023-04-23T22:11:08.365Z,59.96
2023-04-23T22:13:36.236Z,60.10
2023-04-23T22:16:06.566Z,60.68
2023-04-23T22:18:38.358Z,60.99
2023-04-23T22:21:05.411Z,59.68
2023-04-23T22:23:32.437Z,61.08
2023-04-23T22:25:59.334Z,62.71
2023-04-23T22:28:26.159Z,62.13
2023-04-23T22:30:53.065Z,62.07
2023-04-23T22:33:20.095Z,62.16
2023-04-23T22:35:47.295Z,62.24
2023-04-23T22:38:14.226Z,61.35
2023-04-23T22:40:41.079Z,62.17
2023-04-23T22:43:08.023Z,61.33
2023-04-23T22:45:34.989Z,60.94
2023-04-23T22:48:01.884Z,62.26
2023-04-23T22:50:30.551Z,62.64
2023-04-23T22:52:57.600Z,62.35
2023-04-23T22:55:24.510Z,61.65
2023-04-23T22:57:51.358Z,62.07
2023-04-23T23:00:18.200Z,62.61
2023-04-23T23:02:45.067Z,62.68
2023-04-23T23:05:12.022Z,62.38
2023-04-23T23:07:38.797Z,62.31
2023-04-23T23:10:08.900Z,62.39
2023-04-23T23:12:39.301Z,63.30
2023-04-23T23:15:07.755Z,63.66
2023-04-23T23:17:34.742Z,63.61
2023-04-23T23:20:01.698Z,64.36
2023-04-23T23:22:28.512Z,64.53
2023-04-23T23:24:55.346Z,64.35
2023-04-23T23:27:22.163Z,64.37
2023-04-23T23:29:49.038Z,64.10
2023-04-23T23:32:16.151Z,64.11
2023-04-23T23:34:42.905Z,64.73
2023-04-23T23:37:09.712Z,65.51
2023-04-23T23:39:36.658Z,65.07
2023-04-23T23:42:03.644Z,65.45
2023-04-23T23:44:30.733Z,64.72
2023-04-23T23:46:57.826Z,65.00
2023-04-23T23:49:24.809Z,64.14
2023-04-23T23:51:51.714Z,64.45
2023-04-23T23:54:18.486Z,62.63
2023-04-23T23:56:45.406Z,63.54
2023-04-23T23:59:12.334Z,64.54
